createdAt,value
2019-04-07T00:02:03.983Z,99.90
2019-04-07T00:07:12.748Z,99.90
2019-04-07T00:12:15.332Z,99.90
2019-04-07T00:17:19.620Z,99.90
2019-04-07T00:22:25.346Z,99.90
2019-04-07T00:27:39.142Z,99.90
2019-04-07T00:32:37.641Z,99.90
2019-04-07T00:37:53.767Z,99.90
2019-04-07T00:42:51.090Z,99.90
2019-04-07T00:47:49.264Z,99.90
2019-04-07T00:52:49.166Z,99.90
2019-04-07T00:57:58.340Z,99.90
2019-04-07T01:03:00.199Z,99.90
2019-04-07T01:08:00.571Z,99.90
2019-04-07T01:13:11.996Z,99.90
2019-04-07T01:18:02.630Z,99.90
2019-04-07T01:23:09.143Z,99.90
2019-04-07T01:28:06.622Z,99.90
2019-04-07T01:33:05.376Z,99.90
2019-04-07T01:38:05.117Z,99.90
2019-04-07T01:43:20.607Z,99.90
2019-04-07T01:48:39.641Z,99.90
2019-04-07T01:53:43.046Z,99.90
2019-04-07T01:58:58.845Z,99.90
2019-04-07T02:04:01.740Z,99.90
2019-04-07T02:09:23.809Z,99.90
2019-04-07T02:14:30.387Z,99.90
2019-04-07T02:19:39.581Z,99.90
2019-04-07T02:24:46.327Z,99.90
2019-04-07T02:30:09.944Z,99.90
2019-04-07T02:35:08.763Z,99.90
2019-04-07T02:40:21.584Z,99.90
2019-04-07T02:45:28.619Z,99.90
2019-04-07T02:50:41.775Z,99.90
2019-04-07T02:55:48.924Z,99.90
2019-04-07T03:00:54.103Z,99.90
2019-04-07T03:06:10.046Z,99.90
2019-04-07T03:11:24.925Z,99.90
2019-04-07T03:16:25.784Z,99.90
2019-04-07T03:21:40.393Z,99.90
2019-04-07T03:26:38.467Z,99.90
2019-04-07T03:31:43.144Z,99.90
2019-04-07T03:37:20.368Z,99.90
2019-04-07T03:42:06.341Z,99.90
2019-04-07T03:47:16.835Z,99.90
2019-04-07T03:52:26.839Z,99.90
2019-04-07T03:57:35.314Z,99.90
2019-04-07T04:02:50.576Z,99.90
2019-04-07T04:07:50.377Z,99.90
2019-04-07T04:12:46.839Z,99.90
2019-04-07T04:17:49.745Z,99.90
2019-04-07T04:22:44.435Z,99.90
2019-04-07T04:27:41.987Z,99.90
2019-04-07T04:32:39.623Z,99.90
2019-04-07T04:37:44.301Z,99.90
2019-04-07T04:42:38.772Z,99.90
2019-04-07T04:47:37.460Z,99.90
2019-04-07T04:52:38.282Z,99.90
2019-04-07T04:57:40.311Z,99.90
2019-04-07T05:02:38.146Z,99.90
2019-04-07T05:07:50.124Z,99.90
2019-04-07T05:12:36.940Z,99.90
2019-04-07T05:17:40.245Z,99.90
2019-04-07T05:22:38.087Z,99.90
2019-04-07T05:27:35.785Z,99.90
2019-04-07T05:32:32.149Z,99.90
2019-04-07T05:37:36.774Z,99.90
2019-04-07T05:42:38.990Z,99.90
2019-04-07T05:47:38.663Z,99.90
2019-04-07T05:52:39.576Z,99.90
2019-04-07T05:57:36.125Z,99.90
2019-04-07T06:02:34.263Z,99.90
2019-04-07T06:07:31.535Z,99.90
2019-04-07T06:12:29.615Z,99.90
2019-04-07T06:17:31.420Z,99.90
2019-04-07T06:22:35.109Z,93.90
2019-04-07T06:27:33.581Z,86.50
2019-04-07T06:32:35.160Z,73.50
2019-04-07T06:37:37.704Z,73.10
2019-04-07T06:42:45.802Z,71.90
2019-04-07T06:47:51.850Z,62.50
2019-04-07T06:52:58.915Z,55.80
2019-04-07T06:58:11.137Z,54.80
2019-04-07T07:03:18.279Z,53.00
2019-04-07T07:08:42.499Z,53.80
2019-04-07T07:13:41.291Z,52.00
2019-04-07T07:18:54.706Z,52.30
2019-04-07T07:23:49.998Z,48.70
2019-04-07T07:28:55.978Z,44.60
2019-04-07T07:33:50.865Z,41.50
2019-04-07T07:38:59.068Z,39.70
2019-04-07T07:43:53.518Z,37.90
2019-04-07T07:48:57.059Z,37.30
2019-04-07T07:54:02.117Z,34.60
2019-04-07T07:59:06.149Z,33.80
2019-04-07T08:04:08.625Z,34.20
2019-04-07T08:09:13.667Z,35.40
2019-04-07T08:14:06.802Z,35.50
2019-04-07T08:19:08.403Z,34.40
2019-04-07T08:24:05.277Z,33.00
2019-04-07T08:29:01.187Z,31.80
2019-04-07T08:34:00.013Z,30.00
2019-04-07T08:38:59.500Z,29.60
2019-04-07T08:43:57.988Z,28.70
2019-04-07T08:48:55.646Z,27.10
2019-04-07T08:54:04.723Z,27.40
2019-04-07T08:59:09.486Z,26.30
2019-04-07T09:04:06.629Z,27.40
2019-04-07T09:09:07.832Z,26.40
2019-04-07T09:14:10.490Z,26.50
2019-04-07T09:19:28.943Z,25.40
2019-04-07T09:24:42.845Z,25.20
2019-04-07T09:29:45.376Z,26.50
2019-04-07T09:34:53.987Z,27.10
2019-04-07T09:40:10.475Z,27.10
2019-04-07T09:45:16.402Z,27.00
2019-04-07T09:50:13.121Z,27.10
2019-04-07T09:55:26.653Z,26.50
2019-04-07T10:00:24.068Z,27.40
2019-04-07T10:05:24.100Z,27.50
2019-04-07T10:10:44.592Z,27.90
2019-04-07T10:15:47.456Z,28.90
2019-04-07T10:20:47.284Z,28.50
2019-04-07T10:26:02.811Z,27.30
2019-04-07T10:31:19.788Z,27.20
2019-04-07T10:36:25.950Z,25.80
2019-04-07T10:41:35.596Z,25.10
2019-04-07T10:46:54.929Z,24.50
2019-04-07T10:52:05.654Z,24.30
2019-04-07T10:57:24.333Z,24.40
2019-04-07T11:02:30.442Z,23.40
2019-04-07T11:07:31.741Z,27.20
2019-04-07T11:12:35.769Z,28.70
2019-04-07T11:17:32.608Z,30.10
2019-04-07T11:22:47.481Z,29.80
2019-04-07T11:28:02.584Z,27.90
2019-04-07T11:33:14.929Z,28.30
2019-04-07T11:38:32.265Z,31.00
2019-04-07T11:43:30.498Z,35.00
2019-04-07T11:48:54.803Z,36.40
2019-04-07T11:59:30.472Z,37.10
2019-04-07T12:04:44.633Z,38.20
2019-04-07T12:09:41.607Z,39.60
2019-04-07T12:14:49.446Z,41.00
2019-04-07T12:19:54.921Z,43.20
2019-04-07T12:25:11.297Z,44.00
2019-04-07T12:30:13.257Z,44.60
2019-04-07T12:35:33.969Z,44.30
2019-04-07T12:40:46.216Z,44.20
2019-04-07T12:45:50.710Z,45.60
2019-04-07T12:50:58.369Z,46.80
2019-04-07T12:56:15.671Z,48.00
2019-04-07T13:01:49.646Z,49.90
2019-04-07T13:07:05.053Z,50.10
2019-04-07T13:12:12.925Z,50.20
2019-04-07T13:17:19.457Z,50.50
2019-04-07T13:22:19.358Z,54.50
2019-04-07T13:27:26.437Z,55.90
2019-04-07T13:32:44.713Z,55.50
2019-04-07T13:37:46.921Z,56.30
2019-04-07T13:43:02.914Z,52.40
2019-04-07T13:48:06.155Z,54.60
2019-04-07T13:53:19.494Z,55.40
2019-04-07T13:58:25.012Z,55.30
2019-04-07T14:03:41.799Z,56.40
2019-04-07T14:08:59.128Z,54.80
2019-04-07T14:13:59.163Z,55.50
2019-04-07T14:18:56.932Z,56.00
2019-04-07T14:23:56.147Z,56.40
2019-04-07T14:28:53.321Z,56.40
2019-04-07T14:33:57.365Z,55.40
2019-04-07T14:39:00.320Z,53.30
2019-04-07T14:44:19.423Z,54.10
2019-04-07T14:49:35.816Z,55.80
2019-04-07T14:54:35.151Z,57.10
2019-04-07T14:59:41.725Z,59.20
2019-04-07T15:04:45.472Z,58.40
2019-04-07T15:09:52.423Z,58.80
2019-04-07T15:14:49.137Z,56.80
2019-04-07T15:19:52.458Z,57.10
2019-04-07T15:24:54.820Z,57.60
2019-04-07T15:29:53.724Z,56.80
2019-04-07T15:34:57.783Z,57.50
2019-04-07T15:40:03.394Z,58.40
2019-04-07T15:44:57.297Z,58.90
2019-04-07T15:49:59.502Z,59.30
2019-04-07T15:54:55.332Z,58.70
2019-04-07T15:59:54.088Z,58.40
2019-04-07T16:04:49.849Z,58.30
2019-04-07T16:09:56.586Z,57.30
2019-04-07T16:14:58.530Z,57.80
2019-04-07T16:20:00.582Z,59.10
2019-04-07T16:24:59.500Z,59.60
2019-04-07T16:29:58.514Z,60.70
2019-04-07T16:34:54.091Z,62.00
2019-04-07T16:45:13.788Z,62.90
2019-04-07T16:50:11.195Z,64.00
2019-04-07T16:55:13.739Z,65.80
2019-04-07T17:00:13.362Z,67.00
2019-04-07T17:05:12.705Z,69.00
2019-04-07T17:10:07.997Z,70.10
2019-04-07T17:15:06.341Z,71.80
2019-04-07T17:20:06.902Z,73.80
2019-04-07T17:25:11.120Z,75.00
2019-04-07T17:30:24.233Z,76.80
2019-04-07T17:35:28.499Z,79.10
2019-04-07T17:40:32.236Z,80.80
2019-04-07T17:45:54.490Z,82.60
2019-04-07T17:51:03.734Z,84.30
2019-04-07T17:56:01.290Z,86.20
2019-04-07T18:01:23.406Z,87.70
2019-04-07T18:06:31.303Z,89.40
2019-04-07T18:11:29.411Z,90.50
2019-04-07T18:16:42.908Z,90.50
2019-04-07T18:21:57.996Z,90.60
2019-04-07T18:27:11.877Z,90.30
2019-04-07T18:32:25.355Z,91.00
2019-04-07T18:37:52.559Z,90.90
2019-04-07T18:42:59.444Z,90.60
2019-04-07T18:48:04.821Z,91.20
2019-04-07T18:53:20.958Z,90.90
2019-04-07T18:58:28.636Z,91.10
2019-04-07T19:03:38.700Z,90.70
2019-04-07T19:08:58.891Z,91.00
2019-04-07T19:14:25.776Z,91.70
2019-04-07T19:19:20.262Z,91.60
2019-04-07T19:24:19.536Z,92.60
2019-04-07T19:29:25.164Z,92.40
2019-04-07T19:35:04.492Z,94.10
2019-04-07T19:40:14.416Z,93.30
2019-04-07T19:45:11.964Z,95.50
2019-04-07T19:50:14.682Z,96.20
2019-04-07T19:55:22.745Z,96.80
2019-04-07T20:00:32.355Z,96.90
2019-04-07T20:05:36.549Z,94.60
2019-04-07T20:10:54.668Z,94.60
2019-04-07T20:16:08.132Z,94.80
2019-04-07T20:21:35.112Z,95.30
2019-04-07T20:26:36.921Z,95.90
2019-04-07T20:31:53.716Z,94.90
2019-04-07T20:37:02.675Z,95.00
2019-04-07T20:42:07.526Z,96.30
2019-04-07T20:47:10.980Z,97.00
2019-04-07T20:52:15.643Z,99.10
2019-04-07T20:57:30.852Z,99.90
2019-04-07T21:03:00.990Z,99.90
2019-04-07T21:08:12.403Z,99.90
2019-04-07T21:13:07.689Z,99.90
2019-04-07T21:18:11.065Z,99.90
2019-04-07T21:23:08.108Z,99.90
2019-04-07T21:28:25.493Z,99.90
2019-04-07T21:33:45.341Z,99.90
2019-04-07T21:38:52.536Z,99.90
2019-04-07T21:44:05.949Z,99.90
2019-04-07T21:49:09.784Z,99.90
2019-04-07T21:54:15.987Z,99.90
2019-04-07T21:59:13.969Z,99.90
2019-04-07T22:04:34.027Z,99.90
2019-04-07T22:09:50.701Z,99.90
2019-04-07T22:14:46.364Z,99.90
2019-04-07T22:19:45.409Z,99.90
2019-04-07T22:24:39.482Z,99.90
2019-04-07T22:29:35.800Z,99.90
2019-04-07T22:34:32.658Z,99.90
2019-04-07T22:39:29.825Z,99.90
2019-04-07T22:44:24.887Z,99.90
2019-04-07T22:49:20.904Z,99.90
2019-04-07T22:54:27.251Z,99.90
2019-04-07T22:59:24.628Z,99.90
2019-04-07T23:04:24.620Z,99.90
2019-04-07T23:09:23.121Z,99.90
2019-04-07T23:14:20.329Z,99.90
2019-04-07T23:19:18.380Z,99.90
2019-04-07T23:24:19.831Z,99.90
2019-04-07T23:29:16.272Z,99.90
2019-04-07T23:34:14.786Z,99.90
2019-04-07T23:39:15.356Z,99.90
2019-04-07T23:44:10.832Z,99.90
2019-04-07T23:49:09.991Z,99.90
2019-04-07T23:54:22.880Z,99.90
2019-04-07T23:59:18.721Z,99.90
